createdAt,value
2017-04-22T00:00:44.051Z,101165
2017-04-22T00:01:44.165Z,101165
2017-04-22T00:02:43.601Z,101160
2017-04-22T00:03:44.211Z,101164
2017-04-22T00:04:43.752Z,101165
2017-04-22T00:05:43.833Z,101164
2017-04-22T00:06:43.913Z,101157
2017-04-22T00:07:43.880Z,101164
2017-04-22T00:08:43.998Z,101159
2017-04-22T00:09:43.954Z,101159
2017-04-22T00:10:44.000Z,101156
2017-04-22T00:11:44.621Z,101158
2017-04-22T00:12:44.136Z,101155
2017-04-22T00:13:44.653Z,101158
2017-04-22T00:14:44.262Z,101153
2017-04-22T00:15:44.796Z,101149
2017-04-22T00:16:44.294Z,101150
2017-04-22T00:17:44.384Z,101152
2017-04-22T00:18:44.919Z,101144
2017-04-22T00:19:44.445Z,101141
2017-04-22T00:20:44.506Z,101144
2017-04-22T00:21:45.026Z,101142
2017-04-22T00:22:44.519Z,101142
2017-04-22T00:23:44.605Z,101143
2017-04-22T00:24:44.645Z,101145
2017-04-22T00:25:45.211Z,101137
2017-04-22T00:26:45.205Z,101145
2017-04-22T00:27:44.682Z,101132
2017-04-22T00:28:44.786Z,101140
2017-04-22T00:29:44.820Z,101141
2017-04-22T00:30:45.403Z,101136
2017-04-22T00:31:45.420Z,101139
2017-04-22T00:32:45.474Z,101134
2017-04-22T00:33:45.538Z,101134
2017-04-22T00:34:45.094Z,101131
2017-04-22T00:35:45.112Z,101131
2017-04-22T00:36:45.170Z,101129
2017-04-22T00:37:45.191Z,101130
2017-04-22T00:38:45.820Z,101128
2017-04-22T00:39:45.783Z,101124
2017-04-22T00:40:45.289Z,101128
2017-04-22T00:41:45.446Z,101127
2017-04-22T00:42:45.483Z,101123
2017-04-22T00:43:46.067Z,101126
2017-04-22T00:44:45.659Z,101128
2017-04-22T00:45:45.608Z,101125
2017-04-22T00:46:46.240Z,101128
2017-04-22T00:47:46.286Z,101124
2017-04-22T00:48:45.809Z,101122
2017-04-22T00:49:45.878Z,101116
2017-04-22T00:50:46.444Z,101112
2017-04-22T00:51:46.002Z,101120
2017-04-22T00:52:46.092Z,101116
2017-04-22T00:53:46.184Z,101119
2017-04-22T00:54:46.707Z,101115
2017-04-22T00:55:46.713Z,101114
2017-04-22T00:56:46.174Z,101106
2017-04-22T00:57:46.193Z,101109
2017-04-22T00:58:46.804Z,101114
2017-04-22T00:59:46.829Z,101115
2017-04-22T01:00:46.331Z,101109
2017-04-22T01:01:46.883Z,101108
2017-04-22T01:02:46.424Z,101105
2017-04-22T01:03:47.026Z,101096
2017-04-22T01:04:46.553Z,101102
2017-04-22T01:05:46.635Z,101103
2017-04-22T01:06:47.278Z,101095
2017-04-22T01:07:47.382Z,101103
2017-04-22T01:08:46.876Z,101104
2017-04-22T01:09:46.933Z,101092
2017-04-22T01:10:47.015Z,101101
2017-04-22T01:11:47.523Z,101102
2017-04-22T01:12:47.605Z,101096
2017-04-22T01:13:47.661Z,101093
2017-04-22T01:14:47.149Z,101094
2017-04-22T01:15:53.535Z,101097
2017-04-22T01:16:47.806Z,101097
2017-04-22T01:17:47.884Z,101095
2017-04-22T01:18:47.315Z,101085
2017-04-22T01:19:47.878Z,101091
2017-04-22T01:20:47.406Z,101087
2017-04-22T01:21:48.009Z,101086
2017-04-22T01:22:47.451Z,101089
2017-04-22T01:23:47.521Z,101084
2017-04-22T01:24:47.556Z,101088
2017-04-22T01:25:47.658Z,101082
2017-04-22T01:26:48.202Z,101087
2017-04-22T01:27:48.242Z,101088
2017-04-22T01:28:47.727Z,101086
2017-04-22T01:29:47.805Z,101089
2017-04-22T01:30:47.897Z,101085
2017-04-22T01:31:47.966Z,101085
2017-04-22T01:32:47.944Z,101079
2017-04-22T01:33:48.496Z,101080
2017-04-22T01:34:48.038Z,101084
2017-04-22T01:35:48.146Z,101080
2017-04-22T01:36:48.216Z,101084
2017-04-22T01:37:48.233Z,101082
2017-04-22T01:38:48.778Z,101075
2017-04-22T01:39:48.185Z,101082
2017-04-22T01:40:48.264Z,101082
2017-04-22T01:41:48.833Z,101079
2017-04-22T01:42:48.864Z,101074
2017-04-22T01:43:48.909Z,101077
2017-04-22T01:44:48.425Z,101073
2017-04-22T01:45:49.056Z,101076
2017-04-22T01:46:49.279Z,101080
2017-04-22T01:47:49.201Z,101074
2017-04-22T01:48:48.766Z,101076
2017-04-22T01:49:49.342Z,101074
2017-04-22T01:50:49.375Z,101070
2017-04-22T01:51:49.451Z,101070
2017-04-22T01:52:49.507Z,101073
2017-04-22T01:53:49.594Z,101066
2017-04-22T01:54:49.671Z,101067
2017-04-22T01:55:49.691Z,101066
2017-04-22T01:56:49.634Z,101070
2017-04-22T01:57:49.693Z,101070
2017-04-22T01:58:49.785Z,101067
2017-04-22T01:59:49.861Z,101068
2017-04-22T02:00:49.402Z,101066
2017-04-22T02:01:49.417Z,101063
2017-04-22T02:02:50.078Z,101064
2017-04-22T02:03:49.607Z,101065
2017-04-22T02:04:49.644Z,101057
2017-04-22T02:05:50.139Z,101061
2017-04-22T02:06:50.207Z,101066
2017-04-22T02:07:49.662Z,101064
2017-04-22T02:08:50.223Z,101062
2017-04-22T02:09:49.779Z,101054
2017-04-22T02:10:50.283Z,101058
2017-04-22T02:11:49.866Z,101057
2017-04-22T02:12:49.820Z,101052
2017-04-22T02:13:50.417Z,101056
2017-04-22T02:14:49.913Z,101056
2017-04-22T02:15:50.512Z,101057
2017-04-22T02:16:50.038Z,101053
2017-04-22T02:17:50.077Z,101058
2017-04-22T02:18:50.708Z,101051
2017-04-22T02:19:50.724Z,101053
2017-04-22T02:20:50.773Z,101054
2017-04-22T02:21:50.336Z,101047
2017-04-22T02:22:50.281Z,101058
2017-04-22T02:23:50.318Z,101054
2017-04-22T02:24:50.895Z,101045
2017-04-22T02:25:50.450Z,101055
2017-04-22T02:26:51.044Z,101055
2017-04-22T02:27:50.549Z,101061
2017-04-22T02:28:51.052Z,101071
2017-04-22T02:29:50.565Z,101063
2017-04-22T02:30:51.138Z,101073
2017-04-22T02:31:51.196Z,101072
2017-04-22T02:32:51.243Z,101071
2017-04-22T02:33:50.761Z,101070
2017-04-22T02:34:50.796Z,101065
2017-04-22T02:35:50.900Z,101071
2017-04-22T02:36:50.917Z,101073
2017-04-22T02:37:50.930Z,101068
2017-04-22T02:38:51.493Z,101080
2017-04-22T02:39:51.067Z,101087
2017-04-22T02:40:51.581Z,101082
2017-04-22T02:41:51.140Z,101090
2017-04-22T02:42:51.728Z,101090
2017-04-22T02:43:51.796Z,101088
2017-04-22T02:44:51.221Z,101088
2017-04-22T02:45:51.317Z,101090
2017-04-22T02:46:51.883Z,101091
2017-04-22T02:47:51.511Z,101094
2017-04-22T02:48:51.461Z,101095
2017-04-22T02:49:51.449Z,101097
2017-04-22T02:50:51.515Z,101098
2017-04-22T02:51:51.565Z,101098
2017-04-22T02:52:51.567Z,101102
2017-04-22T02:53:51.586Z,101098
2017-04-22T02:54:52.232Z,101101
2017-04-22T02:55:51.728Z,101106
2017-04-22T02:56:51.821Z,101101
2017-04-22T02:57:52.413Z,101104
2017-04-22T02:58:52.381Z,101109
2017-04-22T02:59:51.921Z,101106
2017-04-22T03:00:52.500Z,101111
2017-04-22T03:01:51.944Z,101111
2017-04-22T03:02:52.002Z,101114
2017-04-22T03:03:52.595Z,101111
2017-04-22T03:04:52.124Z,101112
2017-04-22T03:05:52.176Z,101103
2017-04-22T03:06:52.246Z,101102
2017-04-22T03:07:52.323Z,101110
2017-04-22T03:08:52.847Z,101118
2017-04-22T03:09:52.919Z,101112
2017-04-22T03:10:52.963Z,101116
2017-04-22T03:11:52.514Z,101121
2017-04-22T03:12:53.013Z,101122
2017-04-22T03:13:53.129Z,101119
2017-04-22T03:14:53.110Z,101115
2017-04-22T03:15:52.591Z,101119
2017-04-22T03:16:52.731Z,101116
2017-04-22T03:17:53.255Z,101120
2017-04-22T03:18:52.837Z,101116
2017-04-22T03:19:53.361Z,101111
2017-04-22T03:20:55.302Z,101123
2017-04-22T03:21:53.470Z,101125
2017-04-22T03:22:53.532Z,101117
2017-04-22T03:23:53.045Z,101128
2017-04-22T03:24:53.595Z,101126
2017-04-22T03:25:53.668Z,101129
2017-04-22T03:26:53.195Z,101135
2017-04-22T03:27:53.226Z,101128
2017-04-22T03:28:53.254Z,101132
2017-04-22T03:29:53.236Z,101129
2017-04-22T03:30:53.853Z,101129
2017-04-22T03:31:53.945Z,101131
2017-04-22T03:32:54.001Z,101129
2017-04-22T03:33:54.053Z,101127
2017-04-22T03:34:54.137Z,101128
2017-04-22T03:35:53.667Z,101126
2017-04-22T03:36:53.735Z,101129
2017-04-22T03:37:54.288Z,101129
2017-04-22T03:38:53.760Z,101131
2017-04-22T03:39:53.809Z,101128
2017-04-22T03:40:53.862Z,101120
2017-04-22T03:41:54.483Z,101128
2017-04-22T03:42:54.536Z,101128
2017-04-22T03:43:54.641Z,101128
2017-04-22T03:44:54.691Z,101129
2017-04-22T03:45:54.111Z,101132
2017-04-22T03:46:54.124Z,101129
2017-04-22T03:47:55.357Z,101129
2017-04-22T03:48:54.786Z,101131
2017-04-22T03:49:54.850Z,101120
2017-04-22T03:50:54.359Z,101129
2017-04-22T03:51:54.441Z,101132
2017-04-22T03:52:54.557Z,101125
2017-04-22T03:53:54.611Z,101131
2017-04-22T03:54:54.654Z,101135
2017-04-22T03:55:55.226Z,101135
2017-04-22T03:56:55.296Z,101129
2017-04-22T03:57:55.369Z,101136
2017-04-22T03:58:55.500Z,101133
2017-04-22T03:59:55.495Z,101136
2017-04-22T04:00:55.567Z,101136
2017-04-22T04:01:55.049Z,101134
2017-04-22T04:02:55.661Z,101134
2017-04-22T04:03:55.169Z,101137
2017-04-22T04:04:55.677Z,101134
2017-04-22T04:05:55.167Z,101137
2017-04-22T04:06:55.229Z,101132
2017-04-22T04:07:55.849Z,101140
2017-04-22T04:08:55.914Z,101142
2017-04-22T04:09:55.289Z,101145
2017-04-22T04:10:55.349Z,101138
2017-04-22T04:11:55.958Z,101143
2017-04-22T04:12:55.379Z,101147
2017-04-22T04:13:55.452Z,101147
2017-04-22T04:14:55.958Z,101150
2017-04-22T04:15:55.478Z,101144
2017-04-22T04:16:55.532Z,101147
2017-04-22T04:17:56.154Z,101145
2017-04-22T04:18:55.688Z,101146
2017-04-22T04:19:55.689Z,101146
2017-04-22T04:20:56.195Z,101136
2017-04-22T04:21:55.745Z,101143
2017-04-22T04:22:55.809Z,101147
2017-04-22T04:23:56.460Z,101149
2017-04-22T04:24:55.954Z,101149
2017-04-22T04:25:55.997Z,101150
2017-04-22T04:26:56.611Z,101148
2017-04-22T04:27:56.653Z,101150
2017-04-22T04:28:56.191Z,101148
2017-04-22T04:29:56.719Z,101144
2017-04-22T04:30:56.262Z,101147
2017-04-22T04:31:56.298Z,101144
2017-04-22T04:32:56.306Z,101144
2017-04-22T04:33:56.897Z,101146
2017-04-22T04:34:56.425Z,101147
2017-04-22T04:35:56.969Z,101151
2017-04-22T04:36:56.556Z,101151
2017-04-22T04:37:56.656Z,101156
2017-04-22T04:38:56.665Z,101154
2017-04-22T04:39:57.248Z,101154
2017-04-22T04:40:56.731Z,101157
2017-04-22T04:41:56.833Z,101152
2017-04-22T04:42:56.931Z,101154
2017-04-22T04:43:57.076Z,101155
2017-04-22T04:44:57.676Z,101149
2017-04-22T04:45:57.199Z,101158
2017-04-22T04:46:57.261Z,101157
2017-04-22T04:47:57.362Z,101157
2017-04-22T04:48:57.367Z,101154
2017-04-22T04:49:57.988Z,101153
2017-04-22T04:50:58.071Z,101156
2017-04-22T04:51:58.119Z,101157
2017-04-22T04:52:57.620Z,101158
2017-04-22T04:53:57.660Z,101160
2017-04-22T04:54:58.268Z,101161
2017-04-22T04:55:58.342Z,101158
2017-04-22T04:56:58.438Z,101157
2017-04-22T04:57:58.413Z,101160
2017-04-22T04:58:57.944Z,101162
2017-04-22T04:59:58.565Z,101162
2017-04-22T05:00:58.591Z,101168
2017-04-22T05:01:58.120Z,101171
2017-04-22T05:02:58.725Z,101173
2017-04-22T05:03:58.248Z,101163
2017-04-22T05:04:58.870Z,101170
2017-04-22T05:05:58.346Z,101171
2017-04-22T05:06:58.421Z,101173
2017-04-22T05:07:58.966Z,101170
2017-04-22T05:08:58.435Z,101167
2017-04-22T05:09:58.555Z,101165
2017-04-22T05:10:59.141Z,101166
2017-04-22T05:11:59.168Z,101166
2017-04-22T05:12:58.675Z,101164
2017-04-22T05:13:59.345Z,101166
2017-04-22T05:14:59.406Z,101164
2017-04-22T05:15:58.876Z,101161
2017-04-22T05:16:59.523Z,101156
2017-04-22T05:17:59.570Z,101163
2017-04-22T05:18:59.051Z,101167
2017-04-22T05:19:59.061Z,101162
2017-04-22T05:20:59.701Z,101162
2017-04-22T05:21:59.244Z,101171
2017-04-22T05:22:59.743Z,101168
2017-04-22T05:23:59.239Z,101176
2017-04-22T05:24:59.302Z,101176
2017-04-22T05:25:59.832Z,101173
2017-04-22T05:26:59.379Z,101175
2017-04-22T05:27:59.351Z,101173
2017-04-22T05:28:59.964Z,101180
2017-04-22T05:30:00.015Z,101180
2017-04-22T05:31:00.025Z,101180
2017-04-22T05:32:00.080Z,101181
2017-04-22T05:32:59.534Z,101183
2017-04-22T05:34:00.174Z,101182
2017-04-22T05:34:59.645Z,101187
2017-04-22T05:36:00.298Z,101175
2017-04-22T05:37:00.383Z,101186
2017-04-22T05:37:59.865Z,101187
2017-04-22T05:39:00.509Z,101187
2017-04-22T05:40:00.533Z,101182
2017-04-22T05:41:00.023Z,101182
2017-04-22T05:42:00.102Z,101183
2017-04-22T05:43:00.687Z,101177
2017-04-22T05:44:00.769Z,101183
2017-04-22T05:45:00.229Z,101182
2017-04-22T05:46:00.384Z,101185
2017-04-22T05:47:00.983Z,101178
2017-04-22T05:48:00.983Z,101182
2017-04-22T05:49:00.994Z,101182
2017-04-22T05:50:01.023Z,101182
2017-04-22T05:51:01.137Z,101183
2017-04-22T05:52:00.609Z,101174
2017-04-22T05:53:01.230Z,101179
2017-04-22T05:54:01.330Z,101180
2017-04-22T05:55:01.661Z,101178
2017-04-22T05:56:00.898Z,101182
2017-04-22T05:57:01.424Z,101182
2017-04-22T05:58:00.957Z,101184
2017-04-22T05:59:01.458Z,101183
2017-04-22T06:00:00.979Z,101183
2017-04-22T06:01:01.315Z,101183
2017-04-22T06:02:01.582Z,101185
2017-04-22T06:03:01.593Z,101187
2017-04-22T06:04:01.160Z,101185
2017-04-22T06:05:01.766Z,101191
2017-04-22T06:06:01.748Z,101183
2017-04-22T06:07:01.600Z,101189
2017-04-22T06:08:01.956Z,101195
2017-04-22T06:09:01.983Z,101191
2017-04-22T06:10:02.035Z,101192
2017-04-22T06:11:02.072Z,101186
2017-04-22T06:12:01.595Z,101192
2017-04-22T06:13:03.787Z,101192
2017-04-22T06:14:02.850Z,101199
2017-04-22T06:15:01.813Z,101199
2017-04-22T06:16:01.773Z,101200
2017-04-22T06:17:01.924Z,101207
2017-04-22T06:18:02.489Z,101196
2017-04-22T06:19:02.270Z,101207
2017-04-22T06:20:02.533Z,101201
2017-04-22T06:21:02.670Z,101203
2017-04-22T06:22:02.145Z,101207
2017-04-22T06:23:02.142Z,101209
2017-04-22T06:24:02.803Z,101208
2017-04-22T06:25:03.159Z,101201
2017-04-22T06:26:02.412Z,101208
2017-04-22T06:27:02.425Z,101207
2017-04-22T06:28:02.574Z,101209
2017-04-22T06:29:02.630Z,101210
2017-04-22T06:30:02.731Z,101210
2017-04-22T06:31:03.126Z,101212
2017-04-22T06:32:03.392Z,101213
2017-04-22T06:33:03.467Z,101208
2017-04-22T06:34:03.486Z,101215
2017-04-22T06:35:02.960Z,101213
2017-04-22T06:36:03.537Z,101214
2017-04-22T06:37:03.352Z,101218
2017-04-22T06:38:03.710Z,101218
2017-04-22T06:39:03.225Z,101217
2017-04-22T06:40:03.241Z,101212
2017-04-22T06:41:03.867Z,101206
2017-04-22T06:42:03.365Z,101213
2017-04-22T06:43:03.658Z,101212
2017-04-22T06:44:03.491Z,101208
2017-04-22T06:45:04.071Z,101210
2017-04-22T06:46:03.620Z,101213
2017-04-22T06:47:03.665Z,101215
2017-04-22T06:48:04.258Z,101212
2017-04-22T06:49:04.062Z,101218
2017-04-22T06:50:04.345Z,101213
2017-04-22T06:51:04.408Z,101216
2017-04-22T06:52:03.883Z,101215
2017-04-22T06:53:04.012Z,101220
2017-04-22T06:54:04.053Z,101214
2017-04-22T06:55:04.960Z,101211
2017-04-22T06:56:04.138Z,101208
2017-04-22T06:57:04.685Z,101201
2017-04-22T06:58:04.202Z,101205
2017-04-22T06:59:04.838Z,101211
2017-04-22T07:00:04.347Z,101212
2017-04-22T07:01:05.226Z,101214
2017-04-22T07:02:04.395Z,101214
2017-04-22T07:03:04.427Z,101209
2017-04-22T07:04:04.487Z,101215
2017-04-22T07:05:04.497Z,101216
2017-04-22T07:06:04.573Z,101214
2017-04-22T07:07:05.440Z,101212
2017-04-22T07:08:04.760Z,101217
2017-04-22T07:09:04.729Z,101216
2017-04-22T07:10:04.749Z,101215
2017-04-22T07:11:04.853Z,101214
2017-04-22T07:12:05.430Z,101215
2017-04-22T07:13:05.267Z,101211
2017-04-22T07:14:05.564Z,101211
2017-04-22T07:15:05.584Z,101212
2017-04-22T07:16:05.132Z,101213
2017-04-22T07:17:05.179Z,101209
2017-04-22T07:18:05.269Z,101214
2017-04-22T07:19:05.553Z,101217
2017-04-22T07:20:05.838Z,101213
2017-04-22T07:21:05.900Z,101217
2017-04-22T07:22:05.354Z,101215
2017-04-22T07:23:06.031Z,101208
2017-04-22T07:24:06.063Z,101209
2017-04-22T07:25:06.344Z,101209
2017-04-22T07:26:06.072Z,101212
2017-04-22T07:27:05.645Z,101208
2017-04-22T07:28:06.253Z,101205
2017-04-22T07:29:05.818Z,101195
2017-04-22T07:30:06.352Z,101196
2017-04-22T07:31:06.118Z,101203
2017-04-22T07:32:06.382Z,101208
2017-04-22T07:33:06.458Z,101206
2017-04-22T07:34:06.524Z,101206
2017-04-22T07:35:06.559Z,101203
2017-04-22T07:36:06.107Z,101208
2017-04-22T07:37:06.337Z,101203
2017-04-22T07:38:06.054Z,101197
2017-04-22T07:39:06.188Z,101201
2017-04-22T07:40:06.236Z,101194
2017-04-22T07:41:06.841Z,101201
2017-04-22T07:42:06.325Z,101205
2017-04-22T07:43:06.729Z,101206
2017-04-22T07:44:06.405Z,101205
2017-04-22T07:45:06.493Z,101207
2017-04-22T07:46:07.120Z,101200
2017-04-22T07:47:07.159Z,101201
2017-04-22T07:48:06.627Z,101192
2017-04-22T07:49:06.946Z,101196
2017-04-22T07:50:07.177Z,101203
2017-04-22T07:51:06.760Z,101203
2017-04-22T07:52:07.329Z,101206
2017-04-22T07:53:07.364Z,101201
2017-04-22T07:54:07.412Z,101201
2017-04-22T07:55:07.713Z,101203
2017-04-22T07:56:07.552Z,101207
2017-04-22T07:57:07.039Z,101204
2017-04-22T07:58:07.631Z,101212
2017-04-22T07:59:07.698Z,101207
2017-04-22T08:00:07.780Z,101209
2017-04-22T08:01:08.158Z,101207
2017-04-22T08:02:07.363Z,101207
2017-04-22T08:03:07.924Z,101208
2017-04-22T08:04:08.001Z,101209
2017-04-22T08:05:07.481Z,101209
2017-04-22T08:06:08.156Z,101213
2017-04-22T08:07:07.907Z,101210
2017-04-22T08:08:08.236Z,101211
2017-04-22T08:09:08.340Z,101217
2017-04-22T08:10:07.864Z,101212
2017-04-22T08:11:07.896Z,101216
2017-04-22T08:12:07.978Z,101217
2017-04-22T08:13:08.887Z,101212
2017-04-22T08:14:08.124Z,101216
2017-04-22T08:15:08.699Z,101210
2017-04-22T08:16:08.179Z,101214
2017-04-22T08:17:08.260Z,101210
2017-04-22T08:18:08.912Z,101210
2017-04-22T08:19:08.753Z,101199
2017-04-22T08:20:09.043Z,101207
2017-04-22T08:21:08.531Z,101213
2017-04-22T08:22:09.191Z,101215
2017-04-22T08:23:08.739Z,101209
2017-04-22T08:24:09.282Z,101209
2017-04-22T08:25:09.636Z,101210
2017-04-22T08:26:08.832Z,101212
2017-04-22T08:27:09.470Z,101208
2017-04-22T08:28:09.566Z,101202
2017-04-22T08:29:09.085Z,101206
2017-04-22T08:30:09.698Z,101207
2017-04-22T08:31:09.969Z,101202
2017-04-22T08:32:09.733Z,101217
2017-04-22T08:33:09.142Z,101210
2017-04-22T08:34:09.711Z,101212
2017-04-22T08:35:09.244Z,101211
2017-04-22T08:36:09.817Z,101211
2017-04-22T08:37:10.127Z,101213
2017-04-22T08:38:09.906Z,101218
2017-04-22T08:39:09.970Z,101213
2017-04-22T08:40:09.984Z,101218
2017-04-22T08:41:09.393Z,101218
2017-04-22T08:42:09.459Z,101212
2017-04-22T08:43:10.311Z,101209
2017-04-22T08:44:10.073Z,101201
2017-04-22T08:45:10.103Z,101205
2017-04-22T08:46:09.654Z,101204
2017-04-22T08:47:10.236Z,101198
2017-04-22T08:48:10.285Z,101199
2017-04-22T08:49:10.092Z,101200
2017-04-22T08:50:09.862Z,101199
2017-04-22T08:51:09.933Z,101196
2017-04-22T08:52:10.510Z,101195
2017-04-22T08:53:10.038Z,101202
2017-04-22T08:54:10.638Z,101195
2017-04-22T08:55:10.993Z,101197
2017-04-22T08:56:10.709Z,101197
2017-04-22T08:57:10.724Z,101194
2017-04-22T08:58:10.746Z,101194
2017-04-22T08:59:10.226Z,101193
2017-04-22T09:00:10.258Z,101199
2017-04-22T09:01:11.096Z,101196
2017-04-22T09:02:10.807Z,101196
2017-04-22T09:03:10.320Z,101196
2017-04-22T09:04:10.408Z,101194
2017-04-22T09:05:10.928Z,101203
2017-04-22T09:06:10.407Z,101186
2017-04-22T09:07:10.700Z,101189
2017-04-22T09:08:10.508Z,101187
2017-04-22T09:09:11.143Z,101186
2017-04-22T09:10:11.235Z,101194
2017-04-22T09:11:10.745Z,101190
2017-04-22T09:12:10.831Z,101195
2017-04-22T09:13:11.720Z,101189
2017-04-22T09:14:11.476Z,101196
2017-04-22T09:15:11.538Z,101190
2017-04-22T09:16:11.579Z,101194
2017-04-22T09:17:11.068Z,101196
2017-04-22T09:18:11.169Z,101199
2017-04-22T09:19:11.980Z,101198
2017-04-22T09:20:11.706Z,101196
2017-04-22T09:21:11.185Z,101198
2017-04-22T09:22:11.743Z,101195
2017-04-22T09:23:11.768Z,101200
2017-04-22T09:24:11.290Z,101198
2017-04-22T09:25:12.159Z,101203
2017-04-22T09:26:11.417Z,101194
2017-04-22T09:27:11.475Z,101204
2017-04-22T09:28:11.523Z,101203
2017-04-22T09:29:12.089Z,101197
2017-04-22T09:30:12.143Z,101200
2017-04-22T09:31:12.028Z,101201
2017-04-22T09:32:11.659Z,101203
2017-04-22T09:33:11.739Z,101197
2017-04-22T09:34:11.808Z,101201
2017-04-22T09:35:11.890Z,101199
2017-04-22T09:36:12.463Z,101195
2017-04-22T09:37:12.206Z,101203
2017-04-22T09:38:12.567Z,101208
2017-04-22T09:39:12.109Z,101196
2017-04-22T09:40:12.674Z,101211
2017-04-22T09:41:12.684Z,101205
2017-04-22T09:42:12.744Z,101206
2017-04-22T09:43:12.525Z,101200
2017-04-22T09:44:12.834Z,101208
2017-04-22T09:45:12.335Z,101203
2017-04-22T09:46:12.929Z,101200
2017-04-22T09:47:12.480Z,101207
2017-04-22T09:48:13.042Z,101207
2017-04-22T09:49:12.823Z,101207
2017-04-22T09:50:13.134Z,101209
2017-04-22T09:51:12.600Z,101216
2017-04-22T09:52:13.167Z,101208
2017-04-22T09:53:13.281Z,101207
2017-04-22T09:54:12.825Z,101207
2017-04-22T09:55:13.596Z,101216
2017-04-22T09:56:13.421Z,101218
2017-04-22T09:57:12.948Z,101207
2017-04-22T09:58:12.980Z,101213
2017-04-22T09:59:13.576Z,101211
2017-04-22T10:00:13.002Z,101211
2017-04-22T10:01:13.967Z,101201
2017-04-22T10:02:13.736Z,101208
2017-04-22T10:03:13.263Z,101202
2017-04-22T10:04:13.875Z,101203
2017-04-22T10:05:13.339Z,101209
2017-04-22T10:06:13.936Z,101207
2017-04-22T10:07:14.274Z,101209
2017-04-22T10:08:13.545Z,101206
2017-04-22T10:09:13.528Z,101192
2017-04-22T10:10:15.466Z,101200
2017-04-22T10:11:13.575Z,101196
2017-04-22T10:12:14.153Z,101196
2017-04-22T10:13:14.411Z,101191
2017-04-22T10:14:13.699Z,101195
2017-04-22T10:15:13.683Z,101196
2017-04-22T10:16:13.775Z,101181
2017-04-22T10:17:14.248Z,101198
2017-04-22T10:18:13.805Z,101195
2017-04-22T10:19:14.098Z,101196
2017-04-22T10:20:13.933Z,101199
2017-04-22T10:21:13.971Z,101203
2017-04-22T10:22:14.549Z,101196
2017-04-22T10:23:14.628Z,101201
2017-04-22T10:24:14.175Z,101203
2017-04-22T10:25:14.986Z,101202
2017-04-22T10:26:14.760Z,101200
2017-04-22T10:27:14.804Z,101200
2017-04-22T10:28:14.364Z,101201
2017-04-22T10:29:14.918Z,101200
2017-04-22T10:30:14.385Z,101194
2017-04-22T10:31:15.314Z,101197
2017-04-22T10:32:14.381Z,101200
2017-04-22T10:33:14.966Z,101198
2017-04-22T10:34:14.477Z,101191
2017-04-22T10:35:14.557Z,101201
2017-04-22T10:36:15.122Z,101205
2017-04-22T10:37:14.882Z,101194
2017-04-22T10:38:14.692Z,101201
2017-04-22T10:39:14.811Z,101205
2017-04-22T10:40:14.774Z,101198
2017-04-22T10:41:15.348Z,101195
2017-04-22T10:42:15.428Z,101186
2017-04-22T10:43:15.705Z,101193
2017-04-22T10:44:14.947Z,101184
2017-04-22T10:45:15.477Z,101188
2017-04-22T10:46:14.959Z,101192
2017-04-22T10:47:15.559Z,101195
2017-04-22T10:48:15.610Z,101195
2017-04-22T10:49:15.425Z,101196
2017-04-22T10:50:15.733Z,101189
2017-04-22T10:51:15.246Z,101194
2017-04-22T10:52:15.886Z,101189
2017-04-22T10:53:15.988Z,101194
2017-04-22T10:54:16.018Z,101187
2017-04-22T10:55:15.863Z,101194
2017-04-22T10:56:16.166Z,101192
2017-04-22T10:57:15.640Z,101193
2017-04-22T10:58:15.655Z,101199
2017-04-22T10:59:15.645Z,101190
2017-04-22T11:00:16.216Z,101189
2017-04-22T11:01:16.010Z,101176
2017-04-22T11:02:16.322Z,101183
2017-04-22T11:03:15.860Z,101188
2017-04-22T11:04:16.395Z,101185
2017-04-22T11:05:16.438Z,101178
2017-04-22T11:06:16.464Z,101182
2017-04-22T11:07:16.797Z,101175
2017-04-22T11:08:16.048Z,101179
2017-04-22T11:09:16.676Z,101180
2017-04-22T11:10:16.743Z,101173
2017-04-22T11:11:16.287Z,101171
2017-04-22T11:12:16.260Z,101181
2017-04-22T11:13:16.571Z,101170
2017-04-22T11:14:16.956Z,101176
2017-04-22T11:15:16.474Z,101181
2017-04-22T11:16:17.025Z,101167
2017-04-22T11:17:16.561Z,101163
2017-04-22T11:18:17.215Z,101161
2017-04-22T11:19:16.916Z,101165
2017-04-22T11:20:17.279Z,101169
2017-04-22T11:21:17.291Z,101165
2017-04-22T11:22:17.346Z,101156
2017-04-22T11:23:16.898Z,101169
2017-04-22T11:24:17.447Z,101167
2017-04-22T11:25:17.728Z,101164
2017-04-22T11:26:17.509Z,101162
2017-04-22T11:27:17.585Z,101163
2017-04-22T11:28:17.630Z,101165
2017-04-22T11:29:17.169Z,101170
2017-04-22T11:30:17.303Z,101171
2017-04-22T11:31:18.118Z,101171
2017-04-22T11:32:17.918Z,101171
2017-04-22T11:33:17.458Z,101170
2017-04-22T11:34:17.978Z,101169
2017-04-22T11:35:17.514Z,101167
2017-04-22T11:36:18.084Z,101181
2017-04-22T11:37:18.354Z,101176
2017-04-22T11:38:17.556Z,101168
2017-04-22T11:39:18.149Z,101173
2017-04-22T11:40:17.583Z,101171
2017-04-22T11:41:17.637Z,101170
2017-04-22T11:42:17.752Z,101175
2017-04-22T11:43:18.005Z,101173
2017-04-22T11:44:18.338Z,101175
2017-04-22T11:45:17.838Z,101172
2017-04-22T11:46:17.921Z,101171
2017-04-22T11:47:18.012Z,101174
2017-04-22T11:48:18.560Z,101169
2017-04-22T11:49:18.333Z,101173
2017-04-22T11:50:18.696Z,101163
2017-04-22T11:51:18.237Z,101164
2017-04-22T11:52:18.266Z,101160
2017-04-22T11:53:18.904Z,101159
2017-04-22T11:54:18.968Z,101167
2017-04-22T11:55:18.783Z,101165
2017-04-22T11:56:19.072Z,101163
2017-04-22T11:57:18.685Z,101163
2017-04-22T11:58:18.742Z,101159
2017-04-22T11:59:18.830Z,101158
2017-04-22T12:00:19.369Z,101162
2017-04-22T12:01:19.151Z,101158
2017-04-22T12:02:18.951Z,101156
2017-04-22T12:03:19.488Z,101161
2017-04-22T12:04:18.913Z,101160
2017-04-22T12:05:19.551Z,101161
2017-04-22T12:06:19.594Z,101164
2017-04-22T12:07:19.364Z,101162
2017-04-22T12:08:19.642Z,101157
2017-04-22T12:09:19.613Z,101153
2017-04-22T12:10:19.752Z,101162
2017-04-22T12:11:19.767Z,101163
2017-04-22T12:12:19.260Z,101159
2017-04-22T12:13:19.653Z,101155
2017-04-22T12:14:19.892Z,101152
2017-04-22T12:15:19.439Z,101157
2017-04-22T12:16:20.051Z,101160
2017-04-22T12:18:20.193Z,101158
2017-04-22T12:19:20.014Z,101160
2017-04-22T12:20:19.782Z,101149
2017-04-22T12:21:19.779Z,101165
2017-04-22T12:22:20.341Z,101165
2017-04-22T12:23:19.862Z,101165
2017-04-22T12:24:19.929Z,101159
2017-04-22T12:25:20.328Z,101162
2017-04-22T12:26:20.603Z,101164
2017-04-22T12:27:20.082Z,101161
2017-04-22T12:28:20.642Z,101155
2017-04-22T12:29:20.724Z,101162
2017-04-22T12:30:20.794Z,101163